createdAt,value
2022-08-09T00:00:00.601Z,89.58
2022-08-09T00:02:32.279Z,89.39
2022-08-09T00:05:03.250Z,89.85
2022-08-09T00:07:46.913Z,89.68
2022-08-09T00:10:27.603Z,89.99
2022-08-09T00:12:54.694Z,90.00
2022-08-09T00:15:26.653Z,91.02
2022-08-09T00:18:11.286Z,90.80
2022-08-09T00:20:41.535Z,91.30
2022-08-09T00:23:56.664Z,91.34
2022-08-09T00:26:10.998Z,91.18
2022-08-09T00:28:39.993Z,91.30
2022-08-09T00:31:30.667Z,90.93
2022-08-09T00:33:56.135Z,91.41
2022-08-09T00:36:29.683Z,91.61
2022-08-09T00:38:58.779Z,92.11
2022-08-09T00:44:12.945Z,91.66
2022-08-09T00:44:25.081Z,91.98
2022-08-09T00:46:57.647Z,91.57
2022-08-09T00:49:32.380Z,91.50
2022-08-09T00:52:06.225Z,91.57
2022-08-09T00:54:53.869Z,91.58
2022-08-09T00:57:24.628Z,92.68
2022-08-09T01:00:03.003Z,92.69
2022-08-09T01:02:34.922Z,93.30
2022-08-09T01:05:13.635Z,93.44
2022-08-09T01:08:16.232Z,92.52
2022-08-09T01:11:15.608Z,93.21
2022-08-09T01:14:00.363Z,93.74
2022-08-09T01:16:47.346Z,93.51
2022-08-09T01:19:40.204Z,94.12
2022-08-09T01:22:39.983Z,93.81
2022-08-09T01:25:58.107Z,95.03
2022-08-09T01:28:26.273Z,94.31
2022-08-09T01:30:58.126Z,95.58
2022-08-09T01:33:30.281Z,94.67
2022-08-09T01:36:05.106Z,94.63
2022-08-09T01:38:38.378Z,94.00
2022-08-09T01:41:15.679Z,94.85
2022-08-09T01:43:50.339Z,95.18
2022-08-09T01:46:31.708Z,95.09
2022-08-09T01:49:14.520Z,95.31
2022-08-09T01:51:53.753Z,95.12
2022-08-09T01:54:33.803Z,94.44
2022-08-09T01:57:06.614Z,94.79
2022-08-09T01:59:40.854Z,95.57
2022-08-09T02:02:23.064Z,95.07
2022-08-09T02:05:04.174Z,94.82
2022-08-09T02:08:39.346Z,94.94
2022-08-09T02:10:33.336Z,94.60
2022-08-09T02:13:02.174Z,94.81
2022-08-09T02:15:49.605Z,94.75
2022-08-09T02:18:23.600Z,94.66
2022-08-09T02:20:56.689Z,94.92
2022-08-09T02:23:23.638Z,94.41
2022-08-09T02:25:56.878Z,94.77
2022-08-09T02:28:37.670Z,95.23
2022-08-09T02:31:36.611Z,94.74
2022-08-09T02:34:13.761Z,94.88
2022-08-09T02:36:55.780Z,94.19
2022-08-09T02:39:45.213Z,95.10
2022-08-09T02:42:25.797Z,95.49
2022-08-09T02:45:03.606Z,95.40
2022-08-09T02:47:33.717Z,95.78
2022-08-09T02:50:27.042Z,94.66
2022-08-09T02:53:00.253Z,95.74
2022-08-09T02:55:46.619Z,96.44
2022-08-09T02:58:36.849Z,96.07
2022-08-09T03:01:08.079Z,96.50
2022-08-09T03:04:18.134Z,95.82
2022-08-09T03:06:27.339Z,95.16
2022-08-09T03:08:56.774Z,95.76
2022-08-09T03:12:06.473Z,95.79
2022-08-09T03:14:13.331Z,94.88
2022-08-09T03:16:45.092Z,94.92
2022-08-09T03:19:58.371Z,95.25
2022-08-09T03:22:12.498Z,96.05
2022-08-09T03:25:06.265Z,97.23
2022-08-09T03:27:44.584Z,97.63
2022-08-09T03:30:14.564Z,97.74
2022-08-09T03:32:59.031Z,97.98
2022-08-09T03:36:11.540Z,98.52
2022-08-09T03:38:28.483Z,97.57
2022-08-09T03:40:56.409Z,98.40
2022-08-09T03:43:23.497Z,98.56
2022-08-09T03:46:05.423Z,98.15
2022-08-09T03:48:51.531Z,98.15
2022-08-09T03:51:55.924Z,98.36
2022-08-09T03:54:12.072Z,97.97
2022-08-09T03:56:46.704Z,97.82
2022-08-09T03:59:20.848Z,97.83
2022-08-09T04:01:50.840Z,97.50
2022-08-09T04:04:18.494Z,97.79
2022-08-09T04:06:49.098Z,97.63
2022-08-09T04:09:47.676Z,98.21
2022-08-09T04:12:30.001Z,98.00
2022-08-09T04:15:01.544Z,97.79
2022-08-09T04:17:30.292Z,97.63
2022-08-09T04:20:02.726Z,97.68
2022-08-09T04:22:31.762Z,97.74
2022-08-09T04:24:59.665Z,96.65
2022-08-09T04:27:29.000Z,96.45
2022-08-09T04:29:56.027Z,95.49
2022-08-09T04:32:23.551Z,94.63
2022-08-09T04:34:58.828Z,94.82
2022-08-09T04:37:45.102Z,93.50
2022-08-09T04:40:19.077Z,92.73
2022-08-09T04:42:48.666Z,91.72
2022-08-09T04:45:20.683Z,93.29
2022-08-09T04:48:01.085Z,92.11
2022-08-09T04:50:34.982Z,87.96
2022-08-09T04:53:11.632Z,87.96
2022-08-09T04:55:57.965Z,85.25
2022-08-09T04:58:31.552Z,83.10
2022-08-09T05:00:59.235Z,79.80
2022-08-09T05:03:40.301Z,79.75
2022-08-09T05:06:22.113Z,77.94
2022-08-09T05:08:59.935Z,75.30
2022-08-09T05:11:30.572Z,73.92
2022-08-09T05:14:00.396Z,72.48
2022-08-09T05:16:31.623Z,71.66
2022-08-09T05:19:00.238Z,69.79
2022-08-09T05:21:30.271Z,68.17
2022-08-09T05:24:05.473Z,69.63
2022-08-09T05:26:41.085Z,68.54
2022-08-09T05:29:21.995Z,67.97
2022-08-09T05:31:56.281Z,65.59
2022-08-09T05:34:30.661Z,66.73
2022-08-09T05:37:06.856Z,64.62
2022-08-09T05:39:43.641Z,64.67
2022-08-09T05:42:26.275Z,62.97
2022-08-09T05:44:56.358Z,60.72
2022-08-09T05:47:30.282Z,60.48
2022-08-09T05:50:30.292Z,58.02
2022-08-09T05:52:53.799Z,57.24
2022-08-09T05:55:23.927Z,57.11
2022-08-09T05:57:56.627Z,57.38
2022-08-09T06:00:25.912Z,55.34
2022-08-09T06:02:57.238Z,56.75
2022-08-09T06:05:49.864Z,55.61
2022-08-09T06:08:19.295Z,54.22
2022-08-09T06:10:51.835Z,54.24
2022-08-09T06:13:20.810Z,53.34
2022-08-09T06:15:52.354Z,52.84
2022-08-09T06:18:23.821Z,53.20
2022-08-09T06:20:54.883Z,53.03
2022-08-09T06:23:58.951Z,53.02
2022-08-09T06:26:20.982Z,50.24
2022-08-09T06:29:00.691Z,50.47
2022-08-09T06:31:40.072Z,50.31
2022-08-09T06:34:25.981Z,48.47
2022-08-09T06:36:59.173Z,48.71
2022-08-09T06:39:48.470Z,49.53
2022-08-09T06:42:17.269Z,47.49
2022-08-09T06:44:53.952Z,46.58
2022-08-09T06:47:23.648Z,45.55
2022-08-09T06:53:50.767Z,45.56
2022-08-09T07:04:31.602Z,44.12
2022-08-09T07:07:00.650Z,44.09
2022-08-09T07:09:56.090Z,44.00
2022-08-09T07:12:18.774Z,44.48
2022-08-09T07:14:50.858Z,43.04
2022-08-09T07:17:20.243Z,42.99
2022-08-09T07:19:55.232Z,43.57
2022-08-09T07:22:34.475Z,44.46
2022-08-09T07:25:05.488Z,44.39
2022-08-09T07:27:43.201Z,43.39
2022-08-09T07:30:21.658Z,43.08
2022-08-09T07:32:51.853Z,42.33
2022-08-09T07:35:19.602Z,41.63
2022-08-09T07:37:49.157Z,41.51
2022-08-09T07:40:27.003Z,40.01
2022-08-09T07:43:01.705Z,38.75
2022-08-09T07:45:38.127Z,39.74
2022-08-09T07:48:22.452Z,39.21
2022-08-09T07:51:09.158Z,38.18
2022-08-09T07:54:04.483Z,38.93
2022-08-09T07:56:30.909Z,38.22
2022-08-09T07:58:59.363Z,39.01
2022-08-09T08:01:34.289Z,39.09
2022-08-09T08:04:03.635Z,37.13
2022-08-09T08:06:32.675Z,37.66
2022-08-09T08:09:05.349Z,38.01
2022-08-09T08:12:10.577Z,37.07
2022-08-09T08:14:32.491Z,37.39
2022-08-09T08:17:07.907Z,37.28
2022-08-09T08:19:39.368Z,37.18
2022-08-09T08:22:06.448Z,38.06
2022-08-09T08:24:40.617Z,37.38
2022-08-09T08:27:16.280Z,37.55
2022-08-09T08:29:48.579Z,36.58
2022-08-09T08:32:24.381Z,36.81
2022-08-09T08:35:00.316Z,36.20
2022-08-09T08:37:41.276Z,35.24
2022-08-09T08:40:16.023Z,36.11
2022-08-09T08:42:47.344Z,36.50
2022-08-09T08:45:15.262Z,35.46
2022-08-09T08:47:45.699Z,35.81
2022-08-09T08:50:18.308Z,34.65
2022-08-09T08:52:58.087Z,34.61
2022-08-09T08:55:27.691Z,35.43
2022-08-09T08:57:57.848Z,35.68
2022-08-09T09:00:29.923Z,35.93
2022-08-09T09:03:11.427Z,35.36
2022-08-09T09:05:59.617Z,35.34
2022-08-09T09:08:40.512Z,35.20
2022-08-09T09:11:13.909Z,34.04
2022-08-09T09:13:57.527Z,34.35
2022-08-09T09:16:35.670Z,35.98
2022-08-09T09:22:26.863Z,35.20
2022-08-09T09:26:01.238Z,35.49
2022-08-09T09:29:03.979Z,34.86
2022-08-09T09:32:04.550Z,34.34
2022-08-09T09:34:18.421Z,34.50
2022-08-09T09:36:53.852Z,34.10
2022-08-09T09:39:50.213Z,34.39
2022-08-09T09:42:32.117Z,32.71
2022-08-09T09:45:08.328Z,34.54
2022-08-09T09:47:47.829Z,34.40
2022-08-09T09:50:24.146Z,35.42
2022-08-09T09:52:56.879Z,33.52
2022-08-09T09:55:32.030Z,34.55
2022-08-09T09:58:16.444Z,34.33
2022-08-09T10:00:58.849Z,32.68
2022-08-09T10:04:04.351Z,32.28
2022-08-09T10:06:47.054Z,31.09
2022-08-09T10:09:22.844Z,32.27
2022-08-09T10:12:14.403Z,33.15
2022-08-09T10:14:48.457Z,34.02
2022-08-09T10:17:39.179Z,33.02
2022-08-09T10:20:27.329Z,33.72
2022-08-09T10:23:20.384Z,33.52
2022-08-09T10:26:04.478Z,33.42
2022-08-09T10:28:37.326Z,32.33
2022-08-09T10:32:20.957Z,32.04
2022-08-09T10:34:09.867Z,31.36
2022-08-09T10:36:42.183Z,29.87
2022-08-09T10:39:15.860Z,31.10
2022-08-09T10:41:47.606Z,31.35
2022-08-09T10:44:18.012Z,32.15
2022-08-09T10:47:20.409Z,30.89
2022-08-09T10:50:32.844Z,28.93
2022-08-09T10:53:24.762Z,28.90
2022-08-09T10:56:25.579Z,27.73
2022-08-09T10:58:59.873Z,26.55
2022-08-09T11:03:14.172Z,27.55
2022-08-09T11:04:31.607Z,27.93
2022-08-09T11:07:00.937Z,27.00
2022-08-09T11:09:47.967Z,28.86
2022-08-09T11:12:29.730Z,27.25
2022-08-09T11:15:01.682Z,28.35
2022-08-09T11:17:32.153Z,28.10
2022-08-09T11:20:19.844Z,28.98
2022-08-09T11:22:57.174Z,27.98
2022-08-09T11:25:45.123Z,29.52
2022-08-09T11:28:54.061Z,29.02
2022-08-09T11:31:50.339Z,28.07
2022-08-09T11:34:25.263Z,27.20
2022-08-09T11:36:53.243Z,26.76
2022-08-09T11:39:20.668Z,29.38
2022-08-09T11:41:48.866Z,28.56
2022-08-09T11:44:16.004Z,28.40
2022-08-09T11:46:58.456Z,28.86
2022-08-09T11:50:54.109Z,28.03
2022-08-09T11:53:16.502Z,28.87
2022-08-09T11:55:53.952Z,29.02
2022-08-09T11:58:33.052Z,26.85
2022-08-09T12:01:08.756Z,28.13
2022-08-09T12:03:57.186Z,28.27
2022-08-09T12:06:32.686Z,27.96
2022-08-09T12:09:03.973Z,28.75
2022-08-09T12:11:44.713Z,26.88
2022-08-09T12:14:36.679Z,26.50
2022-08-09T12:17:27.958Z,27.04
2022-08-09T12:19:59.612Z,26.82
2022-08-09T12:22:29.159Z,26.61
2022-08-09T12:25:17.135Z,26.00
2022-08-09T12:29:11.662Z,26.10
2022-08-09T12:30:36.740Z,26.29
2022-08-09T12:33:07.303Z,23.62
2022-08-09T12:35:40.895Z,23.62
2022-08-09T12:38:37.320Z,24.73
2022-08-09T12:41:07.229Z,27.31
2022-08-09T12:44:05.499Z,28.58
2022-08-09T12:46:26.109Z,28.44
2022-08-09T12:48:57.740Z,29.13
2022-08-09T12:51:52.730Z,29.89
2022-08-09T12:54:12.272Z,30.03
2022-08-09T12:56:54.110Z,30.97
2022-08-09T12:59:57.990Z,31.80
2022-08-09T13:02:12.151Z,31.10
2022-08-09T13:04:42.222Z,30.79
2022-08-09T13:07:40.954Z,30.38
2022-08-09T13:10:06.979Z,31.60
2022-08-09T13:12:40.164Z,30.61
2022-08-09T13:15:21.280Z,31.59
2022-08-09T13:18:06.070Z,31.88
2022-08-09T13:21:04.215Z,33.09
2022-08-09T13:24:15.794Z,31.61
2022-08-09T13:26:42.389Z,31.34
2022-08-09T13:29:18.417Z,31.94
2022-08-09T13:32:16.348Z,32.30
2022-08-09T13:34:47.084Z,31.73
2022-08-09T13:37:24.753Z,32.76
2022-08-09T13:41:54.454Z,33.00
2022-08-09T13:42:56.206Z,33.42
2022-08-09T13:45:32.294Z,33.68
2022-08-09T13:48:11.084Z,34.02
2022-08-09T13:50:38.260Z,33.93
2022-08-09T13:53:07.289Z,34.24
2022-08-09T13:55:34.808Z,35.11
2022-08-09T13:58:05.282Z,35.70
2022-08-09T14:00:48.166Z,34.96
2022-08-09T14:04:03.654Z,34.39
2022-08-09T14:06:25.607Z,35.73
2022-08-09T14:08:54.793Z,36.70
2022-08-09T14:11:22.280Z,37.03
2022-08-09T14:14:24.007Z,35.47
2022-08-09T14:16:37.918Z,34.77
2022-08-09T14:19:07.477Z,34.42
2022-08-09T14:21:34.582Z,34.42
2022-08-09T14:24:10.081Z,33.96
2022-08-09T14:26:38.191Z,34.90
2022-08-09T14:30:15.212Z,36.30
2022-08-09T14:31:55.344Z,36.00
2022-08-09T14:34:27.435Z,36.50
2022-08-09T14:37:06.283Z,35.52
2022-08-09T14:39:46.062Z,35.90
2022-08-09T14:42:30.204Z,36.65
2022-08-09T14:46:38.859Z,36.57
2022-08-09T14:47:58.214Z,37.54
2022-08-09T14:50:34.074Z,38.30
2022-08-09T14:53:11.652Z,37.38
2022-08-09T14:55:50.188Z,39.34
2022-08-09T14:58:18.548Z,39.42
2022-08-09T15:00:48.157Z,39.60
2022-08-09T15:03:20.370Z,40.03
2022-08-09T15:05:52.588Z,39.92
2022-08-09T15:08:25.271Z,39.55
2022-08-09T15:11:00.996Z,40.18
2022-08-09T15:13:48.170Z,40.18
2022-08-09T15:16:20.010Z,40.33
2022-08-09T15:18:49.481Z,41.02
2022-08-09T15:21:57.606Z,41.56
2022-08-09T15:24:12.340Z,40.35
2022-08-09T15:26:45.855Z,39.18
2022-08-09T15:30:57.553Z,39.25
2022-08-09T15:32:00.792Z,38.03
2022-08-09T15:34:34.460Z,36.76
2022-08-09T15:37:03.868Z,36.30
2022-08-09T15:39:34.462Z,36.22
2022-08-09T15:42:03.027Z,36.18
2022-08-09T15:44:32.485Z,36.15
2022-08-09T15:46:59.849Z,36.09
2022-08-09T15:49:28.422Z,36.13
2022-08-09T15:52:02.857Z,35.34
2022-08-09T15:54:44.778Z,36.98
2022-08-09T15:57:34.681Z,35.68
2022-08-09T16:00:13.826Z,36.96
2022-08-09T16:02:43.673Z,37.39
2022-08-09T16:05:22.022Z,38.73
2022-08-09T16:07:50.715Z,37.70
2022-08-09T16:10:55.982Z,38.14
2022-08-09T16:13:21.217Z,37.93
2022-08-09T16:16:10.307Z,37.00
2022-08-09T16:18:44.617Z,38.23
2022-08-09T16:21:17.723Z,41.86
2022-08-09T16:23:54.852Z,42.28
2022-08-09T16:26:35.237Z,41.95
2022-08-09T16:29:12.791Z,44.25
2022-08-09T16:32:19.940Z,45.43
2022-08-09T16:34:55.516Z,45.84
2022-08-09T16:37:55.625Z,46.65
2022-08-09T16:40:08.537Z,46.39
2022-08-09T16:42:36.100Z,46.92
2022-08-09T16:45:05.409Z,48.42
2022-08-09T16:48:38.242Z,47.95
2022-08-09T16:50:31.299Z,49.15
2022-08-09T16:53:00.751Z,49.57
2022-08-09T16:55:31.466Z,49.41
2022-08-09T16:58:16.838Z,49.96
2022-08-09T17:00:46.621Z,50.09
2022-08-09T17:03:21.303Z,49.55
2022-08-09T17:06:08.047Z,50.02
2022-08-09T17:08:45.642Z,49.62
2022-08-09T17:11:40.013Z,50.36
2022-08-09T17:14:25.945Z,50.79
2022-08-09T17:17:01.324Z,51.96
2022-08-09T17:20:06.145Z,52.15
2022-08-09T17:22:25.144Z,52.37
2022-08-09T17:25:04.875Z,52.67
2022-08-09T17:27:39.786Z,52.90
2022-08-09T17:30:17.617Z,53.59
2022-08-09T17:32:47.644Z,54.15
2022-08-09T17:35:15.490Z,54.17
2022-08-09T17:38:12.547Z,55.10
2022-08-09T17:40:34.788Z,55.96
2022-08-09T17:43:33.154Z,56.75
2022-08-09T17:46:03.119Z,57.20
2022-08-09T17:48:39.369Z,57.13
2022-08-09T17:51:18.469Z,58.25
2022-08-09T17:53:52.856Z,59.57
2022-08-09T17:56:28.826Z,59.42
2022-08-09T17:59:02.945Z,59.95
2022-08-09T18:01:40.909Z,59.03
2022-08-09T18:04:19.833Z,59.67
2022-08-09T18:06:54.180Z,60.10
2022-08-09T18:09:23.142Z,59.66
2022-08-09T18:12:15.210Z,60.99
2022-08-09T18:14:44.857Z,61.62
2022-08-09T18:17:27.644Z,61.42
2022-08-09T18:20:54.654Z,61.91
2022-08-09T18:22:57.225Z,62.19
2022-08-09T18:25:51.093Z,62.52
2022-08-09T18:28:21.543Z,63.10
2022-08-09T18:31:00.895Z,63.12
2022-08-09T18:33:28.509Z,62.91
2022-08-09T18:36:00.253Z,63.43
2022-08-09T18:38:27.936Z,63.48
2022-08-09T18:40:55.934Z,63.88
2022-08-09T18:43:24.841Z,63.77
2022-08-09T18:46:50.297Z,63.97
2022-08-09T18:48:42.526Z,64.38
2022-08-09T18:51:10.065Z,64.19
2022-08-09T18:54:00.597Z,64.93
2022-08-09T18:56:31.178Z,65.14
2022-08-09T18:59:00.938Z,64.71
2022-08-09T19:01:28.799Z,65.38
2022-08-09T19:04:10.855Z,65.59
2022-08-09T19:06:38.931Z,65.97
2022-08-09T19:09:13.564Z,65.24
2022-08-09T19:11:47.777Z,66.09
2022-08-09T19:14:16.097Z,65.99
2022-08-09T19:16:59.439Z,66.00
2022-08-09T19:19:28.197Z,66.00
2022-08-09T19:22:04.686Z,66.53
2022-08-09T19:25:07.554Z,65.63
2022-08-09T19:27:23.337Z,66.87
2022-08-09T19:30:24.608Z,66.81
2022-08-09T19:32:40.578Z,65.90
2022-08-09T19:35:08.221Z,65.92
2022-08-09T19:37:54.500Z,66.83
2022-08-09T19:40:22.366Z,66.33
2022-08-09T19:42:49.746Z,66.61
2022-08-09T19:45:17.758Z,66.80
2022-08-09T19:47:45.891Z,66.88
2022-08-09T19:50:50.248Z,67.07
2022-08-09T19:53:04.259Z,67.18
2022-08-09T19:56:02.123Z,67.38
2022-08-09T19:58:29.670Z,66.48
2022-08-09T20:00:57.855Z,66.71
2022-08-09T20:04:24.030Z,64.37
2022-08-09T20:06:23.336Z,66.07
2022-08-09T20:08:56.562Z,64.68
2022-08-09T20:11:26.699Z,66.85
2022-08-09T20:13:55.473Z,67.00
2022-08-09T20:16:37.051Z,67.74
2022-08-09T20:19:47.422Z,67.99
2022-08-09T20:22:02.173Z,67.87
2022-08-09T20:24:34.260Z,68.88
2022-08-09T20:27:05.593Z,69.71
2022-08-09T20:29:37.202Z,69.81
2022-08-09T20:32:30.750Z,70.42
2022-08-09T20:34:55.025Z,70.02
2022-08-09T20:37:22.604Z,70.41
2022-08-09T20:40:16.161Z,70.54
2022-08-09T20:42:37.857Z,71.64
2022-08-09T20:46:01.711Z,72.11
2022-08-09T20:47:55.214Z,72.22
2022-08-09T20:50:48.351Z,73.25
2022-08-09T20:53:35.027Z,73.56
2022-08-09T20:56:02.309Z,73.70
2022-08-09T20:58:32.526Z,73.66
2022-08-09T21:01:33.161Z,73.73
2022-08-09T21:04:14.081Z,74.45
2022-08-09T21:06:37.090Z,74.75
2022-08-09T21:09:13.520Z,74.74
2022-08-09T21:14:30.843Z,75.19
2022-08-09T21:17:00.101Z,76.01
2022-08-09T21:20:17.757Z,76.10
2022-08-09T21:22:37.765Z,75.69
2022-08-09T21:25:20.766Z,76.52
2022-08-09T21:27:51.647Z,76.33
2022-08-09T21:30:28.963Z,77.19
2022-08-09T21:32:57.130Z,77.16
2022-08-09T21:35:24.366Z,76.81
2022-08-09T21:37:59.218Z,77.58
2022-08-09T21:40:30.192Z,78.24
2022-08-09T21:43:01.264Z,78.54
2022-08-09T21:45:28.869Z,78.98
2022-08-09T21:47:58.582Z,78.54
2022-08-09T21:50:35.925Z,78.71
2022-08-09T21:53:19.797Z,79.04
2022-08-09T21:55:55.330Z,79.68
2022-08-09T21:58:29.148Z,80.03
2022-08-09T22:00:58.349Z,79.79
2022-08-09T22:03:26.189Z,79.35
2022-08-09T22:05:54.134Z,79.90
2022-08-09T22:08:24.634Z,80.00
2022-08-09T22:11:00.310Z,80.33
2022-08-09T22:13:45.468Z,80.08
2022-08-09T22:16:12.691Z,80.23
2022-08-09T22:18:53.481Z,79.55
2022-08-09T22:21:25.021Z,79.63
2022-08-09T22:24:16.682Z,79.91
2022-08-09T22:26:47.874Z,79.22
2022-08-09T22:29:19.484Z,79.81
2022-08-09T22:31:57.084Z,79.98
2022-08-09T22:34:26.796Z,79.36
2022-08-09T22:36:55.594Z,81.04
2022-08-09T22:39:56.020Z,80.41
2022-08-09T22:42:22.034Z,79.86
2022-08-09T22:45:00.586Z,79.62
2022-08-09T22:48:16.424Z,80.14
2022-08-09T22:50:30.405Z,80.30
2022-08-09T22:52:58.649Z,80.64
2022-08-09T22:55:39.706Z,80.56
2022-08-09T22:58:30.935Z,81.01
2022-08-09T23:01:00.217Z,80.83
2022-08-09T23:04:02.546Z,81.22
2022-08-09T23:06:14.797Z,81.07
2022-08-09T23:09:02.130Z,80.85
2022-08-09T23:11:29.258Z,81.05
2022-08-09T23:13:56.259Z,81.41
2022-08-09T23:16:23.782Z,81.47
2022-08-09T23:18:50.871Z,80.90
2022-08-09T23:21:27.660Z,81.50
2022-08-09T23:24:06.278Z,81.25
2022-08-09T23:26:38.981Z,81.66
2022-08-09T23:29:11.705Z,81.76
2022-08-09T23:31:43.822Z,81.78
2022-08-09T23:34:11.083Z,81.79
2022-08-09T23:36:38.421Z,82.46
2022-08-09T23:39:07.517Z,82.59
2022-08-09T23:41:36.805Z,83.00
2022-08-09T23:44:04.907Z,83.53
2022-08-09T23:46:32.481Z,83.30
2022-08-09T23:49:00.157Z,83.53
2022-08-09T23:51:27.698Z,83.64
2022-08-09T23:54:02.104Z,84.43
2022-08-09T23:56:53.766Z,84.53
2022-08-09T23:59:20.648Z,84.63
